Isle Of Palms, SC

12:22 PM EST on December 22, 2014 (GMT -0500)
MesoWest NERRS SC-DNR METEOROLOGICAL SITE SC US | Change Station
CLOSE
Current Station
Personal Weather Station
Location: Charleston, SC
Elevation: 21 ft
Nearby Weather Stations

Elev 21 ft 32.75 °N, 79.90 °W | Updated 175 days ago

Overcast
Overcast
55 °F
Feels Like 55 °F
N
6
Wind Variable Wind from NNE
Gusts 7 mph

Today
High -- | Low -- °F
--% Chance of Precip.
Yesterday
High -- | Low -- °F
Precip. -- in
7:18 AM 5:17 PM
New Moon, 1% visible
Pressure 30.02 in
Visibility 1.5 miles
Clouds Overcast 200 ft
Dew Point 48 °F
Humidity 80%
Rainfall -9999.00 in
Snow Depth Not available.
UV 1 out of 12
Pollen .40 out of 12
Air Quality Not available.
Flu Activity Not available.
METAR KLRO 221715Z AUTO 01004KT 1 1/2SM -RA OVC002 08/08 A3002 RMK AO2

More Conditions Fewer Conditions

Pressure 30.02 in
Visibility 1.5 miles
Clouds Overcast 200 ft
Dew Point 48 °F
Humidity 80%
Rainfall -9999.00 in
Snow Depth Not available.
UV 1 out of 12
Pollen .40 out of 12
Air Quality Not available.
Flu Activity Not available.
METAR KLRO 221715Z AUTO 01004KT 1 1/2SM -RA OVC002 08/08 A3002 RMK AO2

More Conditions Fewer Conditions

10-Day Weather Forecast

Almanac

Astronomy

Dec. 22, 2014 Rise Set
Actual Time
Civil Twilight
Nautical Twilight
Astronomical Twilight
Moon
Length of Visible Light
Length of Day
Tomorrow will be .
, % of the Moon is Illuminated

Today's Extremes

State Highs State Lows

Community

WunderPhotos

Upload Photos

1,779,653 photos uploaded!

WunderBlogs® & News

Nearby

Air Quality

  Air Quality AQ Index Pollutant
Not available.

Snow Depth

Station Depth Elevation

Earthquake Activity

City Distance Mag. Time & Date
Minimum magnitude displayed is 2.5.

Coastal Water Temperatures

Place Temperature

Nearby Weather Stations